sensor_id;sensor_type;location;lat;lon;timestamp;P1;durP1;ratioP1;P2;durP2;ratioP2
22955;SDS011;40888;48.148;11.526;2024-02-26T00:02:22;4.73;;;3.57;;
22955;SDS011;40888;48.148;11.526;2024-02-26T00:04:48;3.43;;;3.13;;
22955;SDS011;40888;48.148;11.526;2024-02-26T00:07:15;3.50;;;3.20;;
22955;SDS011;40888;48.148;11.526;2024-02-26T00:09:41;3.13;;;2.93;;
22955;SDS011;40888;48.148;11.526;2024-02-26T00:12:06;4.07;;;3.10;;
22955;SDS011;40888;48.148;11.526;2024-02-26T00:14:32;3.83;;;3.53;;
22955;SDS011;40888;48.148;11.526;2024-02-26T00:16:58;3.60;;;3.20;;
22955;SDS011;40888;48.148;11.526;2024-02-26T00:19:24;3.20;;;3.00;;
22955;SDS011;40888;48.148;11.526;2024-02-26T00:21:50;3.20;;;2.90;;
22955;SDS011;40888;48.148;11.526;2024-02-26T00:24:15;4.23;;;3.37;;
22955;SDS011;40888;48.148;11.526;2024-02-26T00:26:41;3.27;;;2.97;;
22955;SDS011;40888;48.148;11.526;2024-02-26T00:29:07;3.23;;;2.93;;
22955;SDS011;40888;48.148;11.526;2024-02-26T00:31:32;3.40;;;3.00;;
22955;SDS011;40888;48.148;11.526;2024-02-26T00:33:58;3.40;;;2.83;;
22955;SDS011;40888;48.148;11.526;2024-02-26T00:36:24;3.37;;;3.07;;
22955;SDS011;40888;48.148;11.526;2024-02-26T00:38:50;2.80;;;2.47;;
22955;SDS011;40888;48.148;11.526;2024-02-26T00:41:19;3.50;;;3.20;;
22955;SDS011;40888;48.148;11.526;2024-02-26T00:43:45;3.10;;;2.67;;
22955;SDS011;40888;48.148;11.526;2024-02-26T00:46:11;2.93;;;2.73;;
22955;SDS011;40888;48.148;11.526;2024-02-26T00:48:37;3.33;;;3.03;;
22955;SDS011;40888;48.148;11.526;2024-02-26T00:51:03;3.57;;;3.07;;
22955;SDS011;40888;48.148;11.526;2024-02-26T00:53:33;5.30;;;2.80;;
22955;SDS011;40888;48.148;11.526;2024-02-26T00:55:59;3.87;;;3.17;;
22955;SDS011;40888;48.148;11.526;2024-02-26T00:58:25;3.10;;;2.80;;
22955;SDS011;40888;48.148;11.526;2024-02-26T01:00:51;3.43;;;2.90;;
22955;SDS011;40888;48.148;11.526;2024-02-26T01:03:17;3.83;;;2.80;;
22955;SDS011;40888;48.148;11.526;2024-02-26T01:05:43;3.93;;;3.07;;
22955;SDS011;40888;48.148;11.526;2024-02-26T01:08:09;3.67;;;3.03;;
22955;SDS011;40888;48.148;11.526;2024-02-26T01:10:35;3.93;;;3.13;;
22955;SDS011;40888;48.148;11.526;2024-02-26T01:13:01;3.87;;;3.00;;
22955;SDS011;40888;48.148;11.526;2024-02-26T01:15:27;3.10;;;2.80;;
22955;SDS011;40888;48.148;11.526;2024-02-26T01:17:52;3.30;;;3.00;;
22955;SDS011;40888;48.148;11.526;2024-02-26T01:20:19;3.53;;;3.10;;
22955;SDS011;40888;48.148;11.526;2024-02-26T01:22:45;3.60;;;2.80;;
22955;SDS011;40888;48.148;11.526;2024-02-26T01:25:11;3.50;;;3.20;;
22955;SDS011;40888;48.148;11.526;2024-02-26T01:27:38;2.90;;;2.70;;
22955;SDS011;40888;48.148;11.526;2024-02-26T01:30:04;3.67;;;2.60;;
22955;SDS011;40888;48.148;11.526;2024-02-26T01:32:31;3.00;;;2.80;;
22955;SDS011;40888;48.148;11.526;2024-02-26T01:34:57;3.70;;;2.50;;
22955;SDS011;40888;48.148;11.526;2024-02-26T01:37:23;3.80;;;3.13;;
22955;SDS011;40888;48.148;11.526;2024-02-26T01:39:49;3.53;;;3.00;;
22955;SDS011;40888;48.148;11.526;2024-02-26T01:42:14;4.30;;;3.63;;
22955;SDS011;40888;48.148;11.526;2024-02-26T01:44:40;4.23;;;3.20;;
22955;SDS011;40888;48.148;11.526;2024-02-26T01:47:07;3.20;;;2.90;;
22955;SDS011;40888;48.148;11.526;2024-02-26T01:49:36;3.00;;;2.80;;
22955;SDS011;40888;48.148;11.526;2024-02-26T01:52:02;3.47;;;3.17;;
22955;SDS011;40888;48.148;11.526;2024-02-26T01:54:29;3.20;;;2.97;;
22955;SDS011;40888;48.148;11.526;2024-02-26T01:56:55;2.60;;;2.40;;
22955;SDS011;40888;48.148;11.526;2024-02-26T01:59:22;2.93;;;2.53;;
22955;SDS011;40888;48.148;11.526;2024-02-26T02:01:50;3.00;;;2.80;;
22955;SDS011;40888;48.148;11.526;2024-02-26T02:04:19;3.57;;;2.90;;
22955;SDS011;40888;48.148;11.526;2024-02-26T02:06:46;2.60;;;2.40;;
22955;SDS011;40888;48.148;11.526;2024-02-26T02:09:13;3.27;;;2.97;;
22955;SDS011;40888;48.148;11.526;2024-02-26T02:11:39;2.77;;;2.57;;
22955;SDS011;40888;48.148;11.526;2024-02-26T02:14:05;2.80;;;2.60;;
22955;SDS011;40888;48.148;11.526;2024-02-26T02:16:31;3.30;;;3.10;;
22955;SDS011;40888;48.148;11.526;2024-02-26T02:18:58;3.03;;;2.77;;
22955;SDS011;40888;48.148;11.526;2024-02-26T02:21:24;3.00;;;2.80;;
22955;SDS011;40888;48.148;11.526;2024-02-26T02:23:49;3.00;;;2.70;;
22955;SDS011;40888;48.148;11.526;2024-02-26T02:26:15;2.90;;;2.70;;
22955;SDS011;40888;48.148;11.526;2024-02-26T02:28:42;3.00;;;2.77;;
22955;SDS011;40888;48.148;11.526;2024-02-26T02:31:08;2.70;;;2.50;;
22955;SDS011;40888;48.148;11.526;2024-02-26T02:33:34;2.90;;;2.70;;
22955;SDS011;40888;48.148;11.526;2024-02-26T02:36:00;2.83;;;2.47;;
22955;SDS011;40888;48.148;11.526;2024-02-26T02:38:26;2.67;;;2.47;;
22955;SDS011;40888;48.148;11.526;2024-02-26T02:40:54;2.40;;;2.20;;
22955;SDS011;40888;48.148;11.526;2024-02-26T02:43:20;3.10;;;2.80;;
22955;SDS011;40888;48.148;11.526;2024-02-26T02:45:46;3.30;;;3.00;;
22955;SDS011;40888;48.148;11.526;2024-02-26T02:48:11;3.67;;;3.00;;
22955;SDS011;40888;48.148;11.526;2024-02-26T02:50:37;3.87;;;2.90;;
22955;SDS011;40888;48.148;11.526;2024-02-26T02:53:03;5.33;;;4.13;;
22955;SDS011;40888;48.148;11.526;2024-02-26T02:55:29;3.03;;;2.77;;
22955;SDS011;40888;48.148;11.526;2024-02-26T02:57:55;2.60;;;2.40;;
22955;SDS011;40888;48.148;11.526;2024-02-26T03:00:20;3.10;;;2.80;;
22955;SDS011;40888;48.148;11.526;2024-02-26T03:02:49;2.90;;;2.63;;
22955;SDS011;40888;48.148;11.526;2024-02-26T03:05:15;2.57;;;2.37;;
22955;SDS011;40888;48.148;11.526;2024-02-26T03:07:41;2.77;;;2.57;;
22955;SDS011;40888;48.148;11.526;2024-02-26T03:10:06;2.93;;;2.63;;
22955;SDS011;40888;48.148;11.526;2024-02-26T03:12:33;2.90;;;2.70;;
22955;SDS011;40888;48.148;11.526;2024-02-26T03:14:59;2.80;;;2.60;;
22955;SDS011;40888;48.148;11.526;2024-02-26T03:17:30;2.50;;;2.30;;
22955;SDS011;40888;48.148;11.526;2024-02-26T03:19:56;2.90;;;2.70;;
22955;SDS011;40888;48.148;11.526;2024-02-26T03:22:22;2.50;;;2.27;;
22955;SDS011;40888;48.148;11.526;2024-02-26T03:24:47;3.03;;;2.50;;
22955;SDS011;40888;48.148;11.526;2024-02-26T03:27:13;2.50;;;2.30;;
22955;SDS011;40888;48.148;11.526;2024-02-26T03:29:39;2.33;;;2.13;;
22955;SDS011;40888;48.148;11.526;2024-02-26T03:32:05;2.70;;;2.50;;
22955;SDS011;40888;48.148;11.526;2024-02-26T03:34:31;3.47;;;2.30;;
22955;SDS011;40888;48.148;11.526;2024-02-26T03:36:59;2.07;;;1.97;;
22955;SDS011;40888;48.148;11.526;2024-02-26T03:39:25;4.93;;;2.50;;
22955;SDS011;40888;48.148;11.526;2024-02-26T03:41:51;2.50;;;2.30;;
22955;SDS011;40888;48.148;11.526;2024-02-26T03:44:17;2.70;;;2.50;;
22955;SDS011;40888;48.148;11.526;2024-02-26T03:46:42;2.37;;;2.17;;
22955;SDS011;40888;48.148;11.526;2024-02-26T03:49:09;2.50;;;2.30;;
22955;SDS011;40888;48.148;11.526;2024-02-26T03:51:35;2.60;;;2.40;;
22955;SDS011;40888;48.148;11.526;2024-02-26T03:54:01;4.43;;;2.23;;
22955;SDS011;40888;48.148;11.526;2024-02-26T03:56:27;2.60;;;2.40;;
22955;SDS011;40888;48.148;11.526;2024-02-26T03:58:53;2.53;;;2.33;;
22955;SDS011;40888;48.148;11.526;2024-02-26T04:01:18;3.07;;;2.40;;
22955;SDS011;40888;48.148;11.526;2024-02-26T04:03:44;2.50;;;2.20;;
22955;SDS011;40888;48.148;11.526;2024-02-26T04:06:10;2.70;;;2.47;;
22955;SDS011;40888;48.148;11.526;2024-02-26T04:08:39;3.60;;;2.40;;
22955;SDS011;40888;48.148;11.526;2024-02-26T04:11:05;2.60;;;2.40;;
22955;SDS011;40888;48.148;11.526;2024-02-26T04:13:35;3.77;;;2.30;;
22955;SDS011;40888;48.148;11.526;2024-02-26T04:16:03;3.73;;;2.20;;
22955;SDS011;40888;48.148;11.526;2024-02-26T04:18:32;2.97;;;2.37;;
22955;SDS011;40888;48.148;11.526;2024-02-26T04:20:58;2.40;;;2.20;;
22955;SDS011;40888;48.148;11.526;2024-02-26T04:23:24;2.37;;;2.20;;
22955;SDS011;40888;48.148;11.526;2024-02-26T04:25:49;2.20;;;2.00;;
22955;SDS011;40888;48.148;11.526;2024-02-26T04:28:15;2.30;;;2.10;;
22955;SDS011;40888;48.148;11.526;2024-02-26T04:30:41;2.47;;;2.27;;
22955;SDS011;40888;48.148;11.526;2024-02-26T04:33:07;1.97;;;1.87;;
22955;SDS011;40888;48.148;11.526;2024-02-26T04:35:32;3.53;;;2.50;;
22955;SDS011;40888;48.148;11.526;2024-02-26T04:38:00;2.87;;;2.20;;
22955;SDS011;40888;48.148;11.526;2024-02-26T04:40:25;3.83;;;2.30;;
22955;SDS011;40888;48.148;11.526;2024-02-26T04:42:51;3.30;;;2.23;;
22955;SDS011;40888;48.148;11.526;2024-02-26T04:45:17;2.40;;;2.20;;
22955;SDS011;40888;48.148;11.526;2024-02-26T04:47:42;2.87;;;2.63;;
22955;SDS011;40888;48.148;11.526;2024-02-26T04:50:08;2.77;;;2.20;;
22955;SDS011;40888;48.148;11.526;2024-02-26T04:52:34;3.00;;;2.50;;
22955;SDS011;40888;48.148;11.526;2024-02-26T04:55:01;3.90;;;2.27;;
22955;SDS011;40888;48.148;11.526;2024-02-26T04:57:27;6.00;;;3.03;;
22955;SDS011;40888;48.148;11.526;2024-02-26T04:59:53;4.40;;;3.00;;
22955;SDS011;40888;48.148;11.526;2024-02-26T05:02:18;3.33;;;1.90;;
22955;SDS011;40888;48.148;11.526;2024-02-26T05:04:44;3.43;;;2.00;;
22955;SDS011;40888;48.148;11.526;2024-02-26T05:07:10;3.87;;;2.20;;
22955;SDS011;40888;48.148;11.526;2024-02-26T05:09:35;1.97;;;1.87;;
22955;SDS011;40888;48.148;11.526;2024-02-26T05:12:01;3.30;;;2.00;;
22955;SDS011;40888;48.148;11.526;2024-02-26T05:14:27;2.40;;;2.20;;
22955;SDS011;40888;48.148;11.526;2024-02-26T05:16:53;2.20;;;2.00;;
22955;SDS011;40888;48.148;11.526;2024-02-26T05:19:18;1.97;;;1.87;;
22955;SDS011;40888;48.148;11.526;2024-02-26T05:21:44;2.70;;;2.23;;
22955;SDS011;40888;48.148;11.526;2024-02-26T05:24:12;3.17;;;2.17;;
22955;SDS011;40888;48.148;11.526;2024-02-26T05:26:38;3.40;;;2.10;;
22955;SDS011;40888;48.148;11.526;2024-02-26T05:29:03;2.10;;;1.90;;
22955;SDS011;40888;48.148;11.526;2024-02-26T05:31:29;3.00;;;1.67;;
22955;SDS011;40888;48.148;11.526;2024-02-26T05:33:55;2.50;;;1.90;;
22955;SDS011;40888;48.148;11.526;2024-02-26T05:36:21;2.60;;;2.00;;
22955;SDS011;40888;48.148;11.526;2024-02-26T05:38:47;2.70;;;2.20;;
22955;SDS011;40888;48.148;11.526;2024-02-26T05:41:14;2.00;;;1.80;;
22955;SDS011;40888;48.148;11.526;2024-02-26T05:43:41;2.07;;;1.70;;
22955;SDS011;40888;48.148;11.526;2024-02-26T05:46:07;2.20;;;2.00;;
22955;SDS011;40888;48.148;11.526;2024-02-26T05:48:33;2.40;;;1.80;;
22955;SDS011;40888;48.148;11.526;2024-02-26T05:50:59;2.50;;;1.70;;
22955;SDS011;40888;48.148;11.526;2024-02-26T05:53:24;2.23;;;1.60;;
22955;SDS011;40888;48.148;11.526;2024-02-26T05:55:50;1.70;;;1.60;;
22955;SDS011;40888;48.148;11.526;2024-02-26T05:58:16;3.20;;;1.90;;
22955;SDS011;40888;48.148;11.526;2024-02-26T06:00:41;2.00;;;1.80;;
22955;SDS011;40888;48.148;11.526;2024-02-26T06:03:07;2.37;;;2.00;;
22955;SDS011;40888;48.148;11.526;2024-02-26T06:05:33;2.37;;;1.80;;
22955;SDS011;40888;48.148;11.526;2024-02-26T06:07:58;2.67;;;2.00;;
22955;SDS011;40888;48.148;11.526;2024-02-26T06:10:24;2.20;;;2.00;;
22955;SDS011;40888;48.148;11.526;2024-02-26T06:12:50;5.43;;;2.03;;
22955;SDS011;40888;48.148;11.526;2024-02-26T06:15:15;3.70;;;1.90;;
22955;SDS011;40888;48.148;11.526;2024-02-26T06:17:41;3.03;;;1.97;;
22955;SDS011;40888;48.148;11.526;2024-02-26T06:20:07;2.07;;;1.87;;
22955;SDS011;40888;48.148;11.526;2024-02-26T06:22:36;3.50;;;2.50;;
22955;SDS011;40888;48.148;11.526;2024-02-26T06:25:02;4.37;;;2.00;;
22955;SDS011;40888;48.148;11.526;2024-02-26T06:27:28;1.77;;;1.67;;
22955;SDS011;40888;48.148;11.526;2024-02-26T06:29:54;2.50;;;1.77;;
22955;SDS011;40888;48.148;11.526;2024-02-26T06:32:19;1.87;;;1.77;;
22955;SDS011;40888;48.148;11.526;2024-02-26T06:34:45;3.70;;;2.13;;
22955;SDS011;40888;48.148;11.526;2024-02-26T06:37:10;3.47;;;2.00;;
22955;SDS011;40888;48.148;11.526;2024-02-26T06:39:36;2.10;;;1.90;;
22955;SDS011;40888;48.148;11.526;2024-02-26T06:42:03;2.70;;;2.10;;
22955;SDS011;40888;48.148;11.526;2024-02-26T06:44:29;4.73;;;1.70;;
22955;SDS011;40888;48.148;11.526;2024-02-26T06:47:00;3.50;;;1.70;;
22955;SDS011;40888;48.148;11.526;2024-02-26T06:49:26;2.70;;;2.07;;
22955;SDS011;40888;48.148;11.526;2024-02-26T06:51:53;2.30;;;1.70;;
22955;SDS011;40888;48.148;11.526;2024-02-26T06:54:19;1.90;;;1.70;;
22955;SDS011;40888;48.148;11.526;2024-02-26T06:56:44;2.90;;;1.50;;
22955;SDS011;40888;48.148;11.526;2024-02-26T06:59:10;2.77;;;1.73;;
22955;SDS011;40888;48.148;11.526;2024-02-26T07:01:36;1.90;;;1.77;;
22955;SDS011;40888;48.148;11.526;2024-02-26T07:04:01;3.47;;;1.90;;
22955;SDS011;40888;48.148;11.526;2024-02-26T07:06:27;1.80;;;1.70;;
22955;SDS011;40888;48.148;11.526;2024-02-26T07:08:53;2.63;;;1.40;;
22955;SDS011;40888;48.148;11.526;2024-02-26T07:11:19;2.43;;;2.00;;
22955;SDS011;40888;48.148;11.526;2024-02-26T07:13:45;2.43;;;1.63;;
22955;SDS011;40888;48.148;11.526;2024-02-26T07:16:11;5.13;;;2.10;;
22955;SDS011;40888;48.148;11.526;2024-02-26T07:18:37;2.40;;;2.00;;
22955;SDS011;40888;48.148;11.526;2024-02-26T07:21:06;4.43;;;1.93;;
22955;SDS011;40888;48.148;11.526;2024-02-26T07:23:32;4.00;;;1.93;;
22955;SDS011;40888;48.148;11.526;2024-02-26T07:25:57;6.50;;;1.67;;
22955;SDS011;40888;48.148;11.526;2024-02-26T07:28:24;3.90;;;2.00;;
22955;SDS011;40888;48.148;11.526;2024-02-26T07:30:49;2.83;;;2.43;;
22955;SDS011;40888;48.148;11.526;2024-02-26T07:33:15;4.93;;;2.70;;
22955;SDS011;40888;48.148;11.526;2024-02-26T07:35:41;4.50;;;2.93;;
22955;SDS011;40888;48.148;11.526;2024-02-26T07:38:06;3.90;;;2.90;;
22955;SDS011;40888;48.148;11.526;2024-02-26T07:40:32;4.60;;;3.10;;
22955;SDS011;40888;48.148;11.526;2024-02-26T07:42:58;8.30;;;3.70;;
22955;SDS011;40888;48.148;11.526;2024-02-26T07:45:24;7.60;;;3.43;;
22955;SDS011;40888;48.148;11.526;2024-02-26T07:47:49;7.23;;;4.03;;
22955;SDS011;40888;48.148;11.526;2024-02-26T07:50:16;8.90;;;3.90;;
22955;SDS011;40888;48.148;11.526;2024-02-26T07:52:43;9.57;;;4.07;;
22955;SDS011;40888;48.148;11.526;2024-02-26T07:55:09;10.27;;;4.00;;
22955;SDS011;40888;48.148;11.526;2024-02-26T07:57:35;9.67;;;4.03;;
22955;SDS011;40888;48.148;11.526;2024-02-26T08:00:04;4.83;;;3.43;;
22955;SDS011;40888;48.148;11.526;2024-02-26T08:02:34;11.43;;;3.80;;
22955;SDS011;40888;48.148;11.526;2024-02-26T08:05:00;5.80;;;3.40;;
22955;SDS011;40888;48.148;11.526;2024-02-26T08:07:25;7.27;;;3.73;;
22955;SDS011;40888;48.148;11.526;2024-02-26T08:09:51;5.27;;;3.23;;
22955;SDS011;40888;48.148;11.526;2024-02-26T08:12:17;6.97;;;3.83;;
22955;SDS011;40888;48.148;11.526;2024-02-26T08:14:42;8.03;;;3.87;;
22955;SDS011;40888;48.148;11.526;2024-02-26T08:17:09;9.97;;;4.00;;
22955;SDS011;40888;48.148;11.526;2024-02-26T08:19:35;6.83;;;3.97;;
22955;SDS011;40888;48.148;11.526;2024-02-26T08:22:01;8.30;;;3.97;;
22955;SDS011;40888;48.148;11.526;2024-02-26T08:24:27;8.40;;;4.07;;
22955;SDS011;40888;48.148;11.526;2024-02-26T08:26:53;7.60;;;4.20;;
22955;SDS011;40888;48.148;11.526;2024-02-26T08:29:19;6.37;;;3.90;;
22955;SDS011;40888;48.148;11.526;2024-02-26T08:31:45;11.47;;;4.37;;
22955;SDS011;40888;48.148;11.526;2024-02-26T08:34:10;9.10;;;3.90;;
22955;SDS011;40888;48.148;11.526;2024-02-26T08:36:36;6.17;;;3.90;;
22955;SDS011;40888;48.148;11.526;2024-02-26T08:39:02;7.07;;;3.53;;
22955;SDS011;40888;48.148;11.526;2024-02-26T08:41:28;7.57;;;3.40;;
22955;SDS011;40888;48.148;11.526;2024-02-26T08:43:54;10.90;;;3.90;;
22955;SDS011;40888;48.148;11.526;2024-02-26T08:46:19;7.23;;;3.53;;
22955;SDS011;40888;48.148;11.526;2024-02-26T08:48:46;6.90;;;4.23;;
22955;SDS011;40888;48.148;11.526;2024-02-26T08:51:11;7.00;;;3.97;;
22955;SDS011;40888;48.148;11.526;2024-02-26T08:53:38;10.47;;;3.73;;
22955;SDS011;40888;48.148;11.526;2024-02-26T08:56:04;7.33;;;3.53;;
22955;SDS011;40888;48.148;11.526;2024-02-26T08:58:30;4.00;;;3.20;;
22955;SDS011;40888;48.148;11.526;2024-02-26T09:00:55;4.20;;;3.30;;
22955;SDS011;40888;48.148;11.526;2024-02-26T09:03:21;8.80;;;3.83;;
22955;SDS011;40888;48.148;11.526;2024-02-26T09:05:47;7.17;;;3.70;;
22955;SDS011;40888;48.148;11.526;2024-02-26T09:08:13;9.17;;;3.77;;
22955;SDS011;40888;48.148;11.526;2024-02-26T09:10:39;8.50;;;3.73;;
22955;SDS011;40888;48.148;11.526;2024-02-26T09:13:05;8.17;;;3.67;;
22955;SDS011;40888;48.148;11.526;2024-02-26T09:15:30;8.37;;;3.60;;
22955;SDS011;40888;48.148;11.526;2024-02-26T09:17:56;10.57;;;3.43;;
22955;SDS011;40888;48.148;11.526;2024-02-26T09:20:22;5.50;;;3.57;;
22955;SDS011;40888;48.148;11.526;2024-02-26T09:22:48;9.23;;;3.97;;
22955;SDS011;40888;48.148;11.526;2024-02-26T09:25:14;7.27;;;3.23;;
22955;SDS011;40888;48.148;11.526;2024-02-26T09:27:41;6.00;;;3.67;;
22955;SDS011;40888;48.148;11.526;2024-02-26T09:30:08;11.27;;;3.93;;
22955;SDS011;40888;48.148;11.526;2024-02-26T09:32:38;7.67;;;3.20;;
22955;SDS011;40888;48.148;11.526;2024-02-26T09:35:07;8.43;;;3.20;;
22955;SDS011;40888;48.148;11.526;2024-02-26T09:37:33;8.40;;;3.27;;
22955;SDS011;40888;48.148;11.526;2024-02-26T09:39:59;5.50;;;3.47;;
22955;SDS011;40888;48.148;11.526;2024-02-26T09:42:25;8.33;;;3.33;;
22955;SDS011;40888;48.148;11.526;2024-02-26T09:44:53;11.23;;;3.60;;
22955;SDS011;40888;48.148;11.526;2024-02-26T09:47:23;9.70;;;3.20;;
22955;SDS011;40888;48.148;11.526;2024-02-26T09:49:52;7.87;;;2.70;;
22955;SDS011;40888;48.148;11.526;2024-02-26T09:52:19;10.37;;;2.20;;
22955;SDS011;40888;48.148;11.526;2024-02-26T09:54:49;2.40;;;2.20;;
22955;SDS011;40888;48.148;11.526;2024-02-26T09:57:15;3.03;;;2.23;;
22955;SDS011;40888;48.148;11.526;2024-02-26T09:59:42;2.27;;;1.67;;
22955;SDS011;40888;48.148;11.526;2024-02-26T10:02:11;3.33;;;1.67;;
22955;SDS011;40888;48.148;11.526;2024-02-26T10:04:41;2.00;;;1.80;;
22955;SDS011;40888;48.148;11.526;2024-02-26T10:07:11;2.83;;;1.60;;
22955;SDS011;40888;48.148;11.526;2024-02-26T10:09:38;4.33;;;1.90;;
22955;SDS011;40888;48.148;11.526;2024-02-26T10:12:04;3.63;;;1.73;;
22955;SDS011;40888;48.148;11.526;2024-02-26T10:14:32;6.40;;;2.33;;
22955;SDS011;40888;48.148;11.526;2024-02-26T10:16:58;5.83;;;1.90;;
22955;SDS011;40888;48.148;11.526;2024-02-26T10:19:29;5.20;;;2.37;;
22955;SDS011;40888;48.148;11.526;2024-02-26T10:21:59;6.77;;;2.80;;
22955;SDS011;40888;48.148;11.526;2024-02-26T10:24:29;3.77;;;2.47;;
22955;SDS011;40888;48.148;11.526;2024-02-26T10:26:56;4.17;;;2.23;;
22955;SDS011;40888;48.148;11.526;2024-02-26T10:29:23;4.47;;;2.27;;
22955;SDS011;40888;48.148;11.526;2024-02-26T10:31:53;5.07;;;2.77;;
22955;SDS011;40888;48.148;11.526;2024-02-26T10:34:19;6.47;;;2.70;;
22955;SDS011;40888;48.148;11.526;2024-02-26T10:36:45;4.37;;;2.57;;
22955;SDS011;40888;48.148;11.526;2024-02-26T10:39:14;4.43;;;2.10;;
22955;SDS011;40888;48.148;11.526;2024-02-26T10:41:41;5.80;;;2.23;;
22955;SDS011;40888;48.148;11.526;2024-02-26T10:44:10;2.50;;;1.93;;
22955;SDS011;40888;48.148;11.526;2024-02-26T10:46:38;4.43;;;1.90;;
22955;SDS011;40888;48.148;11.526;2024-02-26T10:49:12;4.30;;;2.13;;
22955;SDS011;40888;48.148;11.526;2024-02-26T10:51:40;2.73;;;1.77;;
22955;SDS011;40888;48.148;11.526;2024-02-26T10:54:09;2.90;;;1.63;;
22955;SDS011;40888;48.148;11.526;2024-02-26T10:56:41;3.87;;;1.70;;
22955;SDS011;40888;48.148;11.526;2024-02-26T10:59:09;3.97;;;1.90;;
22955;SDS011;40888;48.148;11.526;2024-02-26T11:01:38;4.77;;;1.97;;
22955;SDS011;40888;48.148;11.526;2024-02-26T11:04:06;5.33;;;1.83;;
22955;SDS011;40888;48.148;11.526;2024-02-26T11:06:33;2.00;;;1.80;;
22955;SDS011;40888;48.148;11.526;2024-02-26T11:09:00;3.70;;;1.37;;
22955;SDS011;40888;48.148;11.526;2024-02-26T11:11:27;2.70;;;1.43;;
22955;SDS011;40888;48.148;11.526;2024-02-26T11:13:54;3.60;;;1.30;;
22955;SDS011;40888;48.148;11.526;2024-02-26T11:16:21;3.00;;;1.60;;
22955;SDS011;40888;48.148;11.526;2024-02-26T11:18:48;3.30;;;1.83;;
22955;SDS011;40888;48.148;11.526;2024-02-26T11:21:17;3.00;;;1.67;;
22955;SDS011;40888;48.148;11.526;2024-02-26T11:23:45;2.17;;;1.50;;
22955;SDS011;40888;48.148;11.526;2024-02-26T11:26:11;1.60;;;1.10;;
22955;SDS011;40888;48.148;11.526;2024-02-26T11:28:39;2.00;;;1.43;;
22955;SDS011;40888;48.148;11.526;2024-02-26T11:31:06;1.23;;;1.10;;
22955;SDS011;40888;48.148;11.526;2024-02-26T11:33:33;3.60;;;1.30;;
22955;SDS011;40888;48.148;11.526;2024-02-26T11:36:07;1.30;;;1.10;;
22955;SDS011;40888;48.148;11.526;2024-02-26T11:38:34;1.20;;;1.10;;
22955;SDS011;40888;48.148;11.526;2024-02-26T11:41:01;2.27;;;1.03;;
22955;SDS011;40888;48.148;11.526;2024-02-26T11:46:24;3.33;;;1.20;;
22955;SDS011;40888;48.148;11.526;2024-02-26T11:48:58;1.27;;;1.10;;
22955;SDS011;40888;48.148;11.526;2024-02-26T11:51:32;2.03;;;1.17;;
22955;SDS011;40888;48.148;11.526;2024-02-26T11:53:59;3.03;;;1.13;;
22955;SDS011;40888;48.148;11.526;2024-02-26T11:56:25;4.72;;;1.27;;
22955;SDS011;40888;48.148;11.526;2024-02-26T11:59:01;2.20;;;1.60;;
22955;SDS011;40888;48.148;11.526;2024-02-26T12:04:10;3.75;;;1.50;;
22955;SDS011;40888;48.148;11.526;2024-02-26T12:06:40;1.55;;;1.45;;
22955;SDS011;40888;48.148;11.526;2024-02-26T12:09:34;1.25;;;1.05;;
22955;SDS011;40888;48.148;11.526;2024-02-26T12:12:08;1.33;;;1.10;;
22955;SDS011;40888;48.148;11.526;2024-02-26T12:14:39;2.15;;;1.25;;
22955;SDS011;40888;48.148;11.526;2024-02-26T12:17:06;4.00;;;0.88;;
22955;SDS011;40888;48.148;11.526;2024-02-26T12:19:34;1.58;;;1.10;;
22955;SDS011;40888;48.148;11.526;2024-02-26T12:22:02;1.38;;;1.00;;
22955;SDS011;40888;48.148;11.526;2024-02-26T12:24:28;0.77;;;0.77;;
22955;SDS011;40888;48.148;11.526;2024-02-26T12:26:54;1.40;;;1.30;;
22955;SDS011;40888;48.148;11.526;2024-02-26T12:29:20;3.30;;;0.82;;
22955;SDS011;40888;48.148;11.526;2024-02-26T12:31:45;2.10;;;0.95;;
22955;SDS011;40888;48.148;11.526;2024-02-26T12:34:13;1.80;;;0.93;;
22955;SDS011;40888;48.148;11.526;2024-02-26T12:36:38;1.25;;;1.15;;
22955;SDS011;40888;48.148;11.526;2024-02-26T12:39:05;1.90;;;1.00;;
22955;SDS011;40888;48.148;11.526;2024-02-26T12:41:32;0.80;;;0.80;;
22955;SDS011;40888;48.148;11.526;2024-02-26T12:43:58;1.30;;;0.82;;
22955;SDS011;40888;48.148;11.526;2024-02-26T12:46:25;2.05;;;0.57;;
22955;SDS011;40888;48.148;11.526;2024-02-26T12:48:50;2.55;;;0.82;;
22955;SDS011;40888;48.148;11.526;2024-02-26T12:51:16;2.85;;;0.75;;
22955;SDS011;40888;48.148;11.526;2024-02-26T12:53:43;1.30;;;0.80;;
22955;SDS011;40888;48.148;11.526;2024-02-26T12:56:11;1.63;;;1.05;;
22955;SDS011;40888;48.148;11.526;2024-02-26T12:58:39;0.98;;;0.90;;
22955;SDS011;40888;48.148;11.526;2024-02-26T13:01:06;1.00;;;0.88;;
22955;SDS011;40888;48.148;11.526;2024-02-26T13:03:35;1.80;;;0.88;;
22955;SDS011;40888;48.148;11.526;2024-02-26T13:06:02;1.95;;;0.90;;
22955;SDS011;40888;48.148;11.526;2024-02-26T13:08:29;1.90;;;1.25;;
22955;SDS011;40888;48.148;11.526;2024-02-26T13:10:54;4.55;;;1.65;;
22955;SDS011;40888;48.148;11.526;2024-02-26T13:13:20;1.58;;;1.13;;
22955;SDS011;40888;48.148;11.526;2024-02-26T13:15:47;4.22;;;1.00;;
22955;SDS011;40888;48.148;11.526;2024-02-26T13:18:13;0.85;;;0.85;;
22955;SDS011;40888;48.148;11.526;2024-02-26T13:20:40;1.33;;;1.00;;
22955;SDS011;40888;48.148;11.526;2024-02-26T13:23:08;1.27;;;1.15;;
22955;SDS011;40888;48.148;11.526;2024-02-26T13:25:37;1.25;;;1.15;;
22955;SDS011;40888;48.148;11.526;2024-02-26T13:28:06;1.70;;;1.10;;
22955;SDS011;40888;48.148;11.526;2024-02-26T13:30:34;1.17;;;0.93;;
22955;SDS011;40888;48.148;11.526;2024-02-26T13:33:10;0.88;;;0.85;;
22955;SDS011;40888;48.148;11.526;2024-02-26T13:35:37;0.95;;;0.95;;
22955;SDS011;40888;48.148;11.526;2024-02-26T13:38:04;2.40;;;1.33;;
22955;SDS011;40888;48.148;11.526;2024-02-26T13:40:31;0.85;;;0.85;;
22955;SDS011;40888;48.148;11.526;2024-02-26T13:42:57;1.98;;;1.00;;
22955;SDS011;40888;48.148;11.526;2024-02-26T13:45:23;1.10;;;1.00;;
22955;SDS011;40888;48.148;11.526;2024-02-26T13:47:48;1.17;;;1.10;;
22955;SDS011;40888;48.148;11.526;2024-02-26T13:50:14;1.42;;;1.05;;
22955;SDS011;40888;48.148;11.526;2024-02-26T13:52:39;1.45;;;1.00;;
22955;SDS011;40888;48.148;11.526;2024-02-26T13:55:05;1.13;;;1.02;;
22955;SDS011;40888;48.148;11.526;2024-02-26T13:57:32;1.05;;;0.90;;
22955;SDS011;40888;48.148;11.526;2024-02-26T13:59:58;1.02;;;0.82;;
22955;SDS011;40888;48.148;11.526;2024-02-26T14:02:24;1.10;;;0.90;;
22955;SDS011;40888;48.148;11.526;2024-02-26T14:04:49;1.00;;;0.70;;
22955;SDS011;40888;48.148;11.526;2024-02-26T14:07:15;0.98;;;0.70;;
22955;SDS011;40888;48.148;11.526;2024-02-26T14:09:42;2.92;;;0.70;;
22955;SDS011;40888;48.148;11.526;2024-02-26T14:12:08;0.95;;;0.70;;
22955;SDS011;40888;48.148;11.526;2024-02-26T14:14:34;1.02;;;0.70;;
22955;SDS011;40888;48.148;11.526;2024-02-26T14:17:03;1.67;;;0.98;;
22955;SDS011;40888;48.148;11.526;2024-02-26T14:19:29;1.77;;;1.00;;
22955;SDS011;40888;48.148;11.526;2024-02-26T14:21:55;1.00;;;0.90;;
22955;SDS011;40888;48.148;11.526;2024-02-26T14:24:20;7.63;;;1.30;;
22955;SDS011;40888;48.148;11.526;2024-02-26T14:26:46;1.30;;;1.20;;
22955;SDS011;40888;48.148;11.526;2024-02-26T14:29:11;1.37;;;1.13;;
22955;SDS011;40888;48.148;11.526;2024-02-26T14:31:37;1.10;;;1.00;;
22955;SDS011;40888;48.148;11.526;2024-02-26T14:34:03;1.33;;;1.00;;
22955;SDS011;40888;48.148;11.526;2024-02-26T14:36:28;1.90;;;1.13;;